createdAt,value
2019-01-28T00:02:16.658Z,21.30
2019-01-28T00:04:46.098Z,20.73
2019-01-28T00:07:14.629Z,20.97
2019-01-28T00:09:43.045Z,18.77
2019-01-28T00:12:11.571Z,20.10
2019-01-28T00:14:40.906Z,18.87
2019-01-28T00:17:10.230Z,19.63
2019-01-28T00:19:39.545Z,18.87
2019-01-28T00:22:07.980Z,18.50
2019-01-28T00:24:36.403Z,19.20
2019-01-28T00:27:05.149Z,17.77
2019-01-28T00:29:34.480Z,18.23
2019-01-28T00:32:03.925Z,19.80
2019-01-28T00:34:33.264Z,17.73
2019-01-28T00:37:02.590Z,18.40
2019-01-28T00:39:31.914Z,17.50
2019-01-28T00:42:00.335Z,18.60
2019-01-28T00:44:29.650Z,17.27
2019-01-28T00:46:59.093Z,17.03
2019-01-28T00:49:28.417Z,16.83
2019-01-28T00:51:57.048Z,16.90
2019-01-28T00:54:25.497Z,16.67
2019-01-28T00:56:54.810Z,19.10
2019-01-28T00:59:24.132Z,17.67
2019-01-28T01:01:53.466Z,16.17
2019-01-28T01:04:22.796Z,16.50
2019-01-28T01:06:52.134Z,16.37
2019-01-28T01:09:21.459Z,16.23
2019-01-28T01:11:50.775Z,15.90
2019-01-28T01:14:19.287Z,16.83
2019-01-28T01:16:47.812Z,15.97
2019-01-28T01:19:16.332Z,16.47
2019-01-28T01:21:45.651Z,16.67
2019-01-28T01:24:14.959Z,16.27
2019-01-28T01:26:44.286Z,15.40
2019-01-28T01:29:13.599Z,15.53
2019-01-28T01:31:42.931Z,15.53
2019-01-28T01:34:12.251Z,15.40
2019-01-28T01:36:41.582Z,14.40
2019-01-28T01:39:10.025Z,14.87
2019-01-28T01:41:39.423Z,15.63
2019-01-28T01:44:08.736Z,16.10
2019-01-28T01:46:38.161Z,15.77
2019-01-28T01:49:06.586Z,15.50
2019-01-28T01:51:35.906Z,15.30
2019-01-28T01:54:05.229Z,14.40
2019-01-28T01:56:34.601Z,15.90
2019-01-28T01:59:03.443Z,16.77
2019-01-28T02:01:32.083Z,14.60
2019-01-28T02:04:00.521Z,15.10
2019-01-28T02:06:29.862Z,16.03
2019-01-28T02:08:59.194Z,16.00
2019-01-28T02:11:27.609Z,15.40
2019-01-28T02:13:56.936Z,15.97
2019-01-28T02:16:25.373Z,16.57
2019-01-28T02:18:54.694Z,16.67
2019-01-28T02:21:23.224Z,15.00
2019-01-28T02:23:52.567Z,15.87
2019-01-28T02:26:21.210Z,14.43
2019-01-28T02:28:50.562Z,16.33
2019-01-28T02:31:19.876Z,16.00
2019-01-28T02:33:49.194Z,17.17
2019-01-28T02:36:18.527Z,15.77
2019-01-28T02:38:47.846Z,15.23
2019-01-28T02:41:17.176Z,16.10
2019-01-28T02:43:46.522Z,15.73
2019-01-28T02:46:15.034Z,16.63
2019-01-28T02:48:43.453Z,17.23
2019-01-28T02:51:11.988Z,15.57
2019-01-28T02:53:41.302Z,16.73
2019-01-28T02:56:10.636Z,18.37
2019-01-28T02:58:39.971Z,18.53
2019-01-28T03:01:09.294Z,18.73
2019-01-28T03:03:38.620Z,17.20
2019-01-28T03:06:07.058Z,16.33
2019-01-28T03:08:36.399Z,16.80
2019-01-28T03:11:05.810Z,15.50
2019-01-28T03:13:34.339Z,16.70
2019-01-28T03:16:03.773Z,16.07
2019-01-28T03:18:33.104Z,16.70
2019-01-28T03:21:02.486Z,17.73
2019-01-28T03:23:31.802Z,16.83
2019-01-28T03:26:01.123Z,16.53
2019-01-28T03:28:29.645Z,17.97
2019-01-28T03:30:58.186Z,20.60
2019-01-28T03:33:26.607Z,19.07
2019-01-28T03:35:55.941Z,19.80
2019-01-28T03:38:25.284Z,20.00
2019-01-28T03:40:54.622Z,19.90
2019-01-28T03:43:23.935Z,21.63
2019-01-28T03:45:52.481Z,23.17
2019-01-28T03:48:21.799Z,22.73
2019-01-28T03:50:51.137Z,22.20
2019-01-28T03:53:19.717Z,22.90
2019-01-28T03:55:48.275Z,24.10
2019-01-28T03:58:17.602Z,23.13
2019-01-28T04:00:46.025Z,24.00
2019-01-28T04:03:15.347Z,21.50
2019-01-28T04:05:43.905Z,22.77
2019-01-28T04:08:13.236Z,22.67
2019-01-28T04:10:42.555Z,23.13
2019-01-28T04:13:11.193Z,22.10
2019-01-28T04:15:40.618Z,21.93
2019-01-28T04:18:09.254Z,22.20
2019-01-28T04:20:37.776Z,23.50
2019-01-28T04:23:07.135Z,22.43
2019-01-28T04:25:36.527Z,22.37
2019-01-28T04:28:05.840Z,22.73
2019-01-28T04:30:35.160Z,21.63
2019-01-28T04:33:04.490Z,21.40
2019-01-28T04:35:33.817Z,19.93
2019-01-28T04:38:02.353Z,21.77
2019-01-28T04:40:30.882Z,21.37
2019-01-28T04:43:00.208Z,20.90
2019-01-28T04:45:29.528Z,21.73
2019-01-28T04:47:58.869Z,22.03
2019-01-28T04:50:27.377Z,22.07
2019-01-28T04:52:55.904Z,22.87
2019-01-28T04:55:24.430Z,22.67
2019-01-28T04:57:52.967Z,24.17
2019-01-28T05:00:23.803Z,28.03
2019-01-28T05:05:56.697Z,25.97
2019-01-28T05:08:26.021Z,27.10
2019-01-28T05:10:54.546Z,24.07
2019-01-28T05:13:22.974Z,25.97
2019-01-28T05:15:52.316Z,33.80
2019-01-28T05:18:21.640Z,36.37
2019-01-28T05:20:50.968Z,43.00
2019-01-28T05:23:20.297Z,47.03
2019-01-28T05:25:49.624Z,34.70
2019-01-28T05:28:18.085Z,33.40
2019-01-28T05:30:46.521Z,32.20
2019-01-28T05:33:15.840Z,30.07
2019-01-28T05:35:44.262Z,33.13
2019-01-28T05:38:13.685Z,30.63
2019-01-28T05:40:43.022Z,29.90
2019-01-28T05:43:12.451Z,30.97
2019-01-28T05:45:41.772Z,35.33
2019-01-28T05:48:11.109Z,32.80
2019-01-28T05:50:40.448Z,35.77
2019-01-28T05:53:09.850Z,38.07
2019-01-28T05:55:39.175Z,36.43
2019-01-28T05:58:07.698Z,38.10
2019-01-28T06:00:40.044Z,33.57
2019-01-28T06:03:08.663Z,41.23
2019-01-28T06:05:37.102Z,33.93
2019-01-28T06:08:06.432Z,40.37
2019-01-28T06:10:35.763Z,39.20
2019-01-28T06:13:05.177Z,43.67
2019-01-28T06:15:34.509Z,38.40
2019-01-28T06:21:06.021Z,40.67
2019-01-28T06:23:35.497Z,41.37
2019-01-28T06:26:04.914Z,43.60
2019-01-28T06:28:34.249Z,44.30
2019-01-28T06:31:03.741Z,46.80
2019-01-28T06:33:33.075Z,48.20
2019-01-28T06:36:02.505Z,47.97
2019-01-28T06:38:31.132Z,45.53
2019-01-28T06:40:59.747Z,48.50
2019-01-28T06:43:29.076Z,50.03
2019-01-28T06:45:58.417Z,45.23
2019-01-28T06:48:28.166Z,45.47
2019-01-28T06:50:57.529Z,46.13
2019-01-28T06:53:26.857Z,44.10
2019-01-28T06:55:56.175Z,45.10
2019-01-28T06:58:25.534Z,43.97
2019-01-28T07:00:54.878Z,42.60
2019-01-28T07:03:23.407Z,42.70
2019-01-28T07:05:51.970Z,43.33
2019-01-28T07:08:20.403Z,44.83
2019-01-28T07:10:48.947Z,43.30
2019-01-28T07:13:18.412Z,43.93
2019-01-28T07:15:47.008Z,40.80
2019-01-28T07:18:15.553Z,42.30
2019-01-28T07:20:44.870Z,39.87
2019-01-28T07:23:13.350Z,39.67
2019-01-28T07:25:41.777Z,40.70
2019-01-28T07:28:11.148Z,39.17
2019-01-28T07:30:40.512Z,39.57
2019-01-28T07:33:10.007Z,39.50
2019-01-28T07:35:38.530Z,38.23
2019-01-28T07:38:07.860Z,39.83
2019-01-28T07:40:37.186Z,42.30
2019-01-28T07:43:06.599Z,42.00
2019-01-28T07:45:45.055Z,40.83
2019-01-28T07:48:27.038Z,41.77
2019-01-28T07:50:57.109Z,41.20
2019-01-28T07:53:26.596Z,43.77
2019-01-28T07:55:55.032Z,39.93
2019-01-28T07:58:23.895Z,40.50
2019-01-28T08:00:52.414Z,38.97
2019-01-28T08:03:21.755Z,39.60
2019-01-28T08:05:51.101Z,39.57
2019-01-28T08:08:19.621Z,40.73
2019-01-28T08:10:48.967Z,40.60
2019-01-28T08:13:17.470Z,43.87
2019-01-28T08:15:46.091Z,43.50
2019-01-28T08:18:15.406Z,41.37
2019-01-28T08:20:44.745Z,38.67
2019-01-28T08:23:14.108Z,39.43
2019-01-28T08:25:43.442Z,39.13
2019-01-28T08:28:12.882Z,37.03
2019-01-28T08:30:42.216Z,40.60
2019-01-28T08:33:11.549Z,37.23
2019-01-28T08:35:40.972Z,36.27
2019-01-28T08:38:10.426Z,33.20
2019-01-28T08:40:38.852Z,33.07
2019-01-28T08:43:07.296Z,31.23
2019-01-28T08:45:35.850Z,31.90
2019-01-28T08:48:05.180Z,38.33
2019-01-28T08:50:34.641Z,31.47
2019-01-28T08:53:04.260Z,33.07
2019-01-28T08:55:33.796Z,29.97
2019-01-28T08:58:03.334Z,28.50
2019-01-28T09:00:40.430Z,27.63
2019-01-28T09:03:08.929Z,29.87
2019-01-28T09:08:40.861Z,30.00
2019-01-28T09:11:09.312Z,39.47
2019-01-28T09:13:38.650Z,42.60
2019-01-28T09:16:08.098Z,33.07
2019-01-28T09:18:37.423Z,35.57
2019-01-28T09:21:06.757Z,31.43
2019-01-28T09:23:36.070Z,32.93
2019-01-28T09:26:06.604Z,32.93
2019-01-28T09:28:54.807Z,37.30
2019-01-28T09:31:24.136Z,36.07
2019-01-28T09:33:52.562Z,36.23
2019-01-28T09:36:21.088Z,36.70
2019-01-28T09:38:50.418Z,37.30
2019-01-28T09:41:19.751Z,36.93
2019-01-28T09:43:49.072Z,34.50
2019-01-28T09:46:18.510Z,33.93
2019-01-28T09:48:47.861Z,35.03
2019-01-28T09:51:17.193Z,38.30
2019-01-28T09:53:45.732Z,35.23
2019-01-28T09:56:15.166Z,35.83
2019-01-28T09:58:43.784Z,33.60
2019-01-28T10:01:12.334Z,30.77
2019-01-28T10:03:41.665Z,33.90
2019-01-28T10:06:11.002Z,34.67
2019-01-28T10:08:40.332Z,33.50
2019-01-28T10:11:09.664Z,34.50
2019-01-28T10:13:38.995Z,31.40
2019-01-28T10:16:08.325Z,31.50
2019-01-28T10:18:41.942Z,32.87
2019-01-28T10:21:26.886Z,33.23
2019-01-28T10:23:55.325Z,32.40
2019-01-28T10:26:24.647Z,31.30
2019-01-28T10:28:54.031Z,32.70
2019-01-28T10:31:23.369Z,30.53
2019-01-28T10:33:52.747Z,31.13
2019-01-28T10:36:22.771Z,31.53
2019-01-28T10:39:12.197Z,30.10
2019-01-28T10:41:39.737Z,27.40
2019-01-28T10:44:10.355Z,26.40
2019-01-28T10:46:38.708Z,28.47
2019-01-28T10:49:07.125Z,28.13
2019-01-28T10:51:36.485Z,28.07
2019-01-28T10:54:06.000Z,27.47
2019-01-28T10:56:34.543Z,28.73
2019-01-28T10:59:04.523Z,28.37
2019-01-28T11:01:34.667Z,25.87
2019-01-28T11:07:08.974Z,22.57
2019-01-28T11:09:38.352Z,19.07
2019-01-28T11:12:07.884Z,12.13
2019-01-28T11:14:36.401Z,13.70
2019-01-28T11:17:05.943Z,13.87
2019-01-28T11:19:34.808Z,12.10
2019-01-28T11:25:09.707Z,18.13
2019-01-28T11:27:39.143Z,27.70
2019-01-28T11:30:49.066Z,29.77
2019-01-28T11:33:18.679Z,33.37
2019-01-28T11:38:49.959Z,32.37
2019-01-28T11:41:19.379Z,35.40
2019-01-28T11:43:48.847Z,30.90
2019-01-28T11:46:17.445Z,36.27
2019-01-28T11:48:46.968Z,31.87
2019-01-28T11:51:16.447Z,34.33
2019-01-28T11:53:45.808Z,31.50
2019-01-28T11:56:15.123Z,35.53
2019-01-28T11:58:43.673Z,33.80
2019-01-28T12:01:32.488Z,31.40
2019-01-28T12:04:00.914Z,33.53
2019-01-28T12:06:29.671Z,34.20
2019-01-28T12:08:59.063Z,40.83
2019-01-28T12:11:28.602Z,35.97
2019-01-28T12:13:57.943Z,31.80
2019-01-28T12:16:27.307Z,30.00
2019-01-28T12:18:55.846Z,31.77
2019-01-28T12:21:24.484Z,34.37
2019-01-28T12:23:53.014Z,31.23
2019-01-28T12:26:22.340Z,31.50
2019-01-28T12:28:51.783Z,27.17
2019-01-28T12:31:21.130Z,32.13
2019-01-28T12:33:50.475Z,28.53
2019-01-28T12:36:19.791Z,32.67
2019-01-28T12:38:48.332Z,31.13
2019-01-28T12:41:17.798Z,34.00
2019-01-28T12:43:47.206Z,34.40
2019-01-28T12:46:15.843Z,32.53
2019-01-28T12:48:44.380Z,33.30
2019-01-28T12:51:13.763Z,34.77
2019-01-28T12:53:43.191Z,34.03
2019-01-28T12:56:12.521Z,33.87
2019-01-28T12:58:41.838Z,34.87
2019-01-28T13:01:11.183Z,35.30
2019-01-28T13:03:40.532Z,34.97
2019-01-28T13:06:09.974Z,34.50
2019-01-28T13:08:39.340Z,31.43
2019-01-28T13:11:08.678Z,30.33
2019-01-28T13:13:41.061Z,31.50
2019-01-28T13:16:26.451Z,32.00
2019-01-28T13:18:55.779Z,31.77
2019-01-28T13:21:25.132Z,33.87
2019-01-28T13:23:54.460Z,34.30
2019-01-28T13:26:23.793Z,36.77
2019-01-28T13:28:53.134Z,36.50
2019-01-28T13:31:22.476Z,35.47
2019-01-28T13:33:51.796Z,33.63
2019-01-28T13:36:20.955Z,39.70
2019-01-28T13:38:50.390Z,36.23
2019-01-28T13:41:19.722Z,39.83
2019-01-28T13:43:49.070Z,40.27
2019-01-28T13:46:18.488Z,39.53
2019-01-28T13:48:47.817Z,32.43
2019-01-28T13:51:17.292Z,29.87
2019-01-28T13:53:46.633Z,30.50
2019-01-28T13:56:15.968Z,31.60
2019-01-28T13:58:45.299Z,30.27
2019-01-28T14:01:14.633Z,31.47
2019-01-28T14:03:43.975Z,31.97
2019-01-28T14:06:13.305Z,31.97
2019-01-28T14:08:42.240Z,33.60
2019-01-28T14:11:11.400Z,34.27
2019-01-28T14:13:40.772Z,38.67
2019-01-28T14:18:50.856Z,41.23
2019-01-28T14:21:20.251Z,41.87
2019-01-28T14:23:49.554Z,37.37
2019-01-28T14:26:18.887Z,41.60
2019-01-28T14:28:48.213Z,42.03
2019-01-28T14:31:17.576Z,39.83
2019-01-28T14:33:46.912Z,45.17
2019-01-28T14:36:16.247Z,45.77
2019-01-28T14:38:44.912Z,41.67
2019-01-28T14:41:14.039Z,41.23
2019-01-28T14:43:43.367Z,39.67
2019-01-28T14:46:12.720Z,37.63
2019-01-28T14:48:49.038Z,44.10
2019-01-28T14:51:31.405Z,46.57
2019-01-28T14:54:00.540Z,41.63
2019-01-28T14:56:29.995Z,43.53
2019-01-28T14:58:59.327Z,38.57
2019-01-28T15:01:28.661Z,36.27
2019-01-28T15:03:57.988Z,39.60
2019-01-28T15:06:27.349Z,36.07
2019-01-28T15:08:55.978Z,30.37
2019-01-28T15:11:25.515Z,29.03
2019-01-28T15:13:54.551Z,30.63
2019-01-28T15:16:23.900Z,30.70
2019-01-28T15:18:53.236Z,34.00
2019-01-28T15:21:22.572Z,37.57
2019-01-28T15:23:51.921Z,39.63
2019-01-28T15:26:21.029Z,39.60
2019-01-28T15:28:49.802Z,41.70
2019-01-28T15:31:19.248Z,43.87
2019-01-28T15:33:48.570Z,45.00
2019-01-28T15:36:17.401Z,46.80
2019-01-28T15:38:46.743Z,44.70
2019-01-28T15:41:15.375Z,47.17
2019-01-28T15:43:44.812Z,48.27
2019-01-28T15:46:14.251Z,52.50
2019-01-28T15:48:43.612Z,57.23
2019-01-28T15:51:12.925Z,59.10
2019-01-28T15:53:41.575Z,66.10
2019-01-28T15:56:10.897Z,68.60
2019-01-28T15:58:40.275Z,71.33
2019-01-28T16:01:09.613Z,64.67
2019-01-28T16:03:38.967Z,55.67
2019-01-28T16:06:07.808Z,61.80
2019-01-28T16:08:37.302Z,76.57
2019-01-28T16:11:06.620Z,77.70
2019-01-28T16:13:35.951Z,78.50
2019-01-28T16:16:05.388Z,77.20
2019-01-28T16:18:34.975Z,80.97
2019-01-28T16:21:24.089Z,80.33
2019-01-28T16:23:53.457Z,80.77
2019-01-28T16:26:22.783Z,83.77
2019-01-28T16:28:51.347Z,82.63
2019-01-28T16:31:20.330Z,86.70
2019-01-28T16:33:48.851Z,82.57
2019-01-28T16:36:18.178Z,83.23
2019-01-28T16:38:47.497Z,85.53
2019-01-28T16:41:16.859Z,89.00
2019-01-28T16:43:46.181Z,92.20
2019-01-28T16:46:14.714Z,93.70
2019-01-28T16:48:44.041Z,98.33
2019-01-28T16:51:13.395Z,94.20
2019-01-28T16:53:42.015Z,93.87
2019-01-28T16:56:11.341Z,91.73
2019-01-28T16:58:40.772Z,88.90
2019-01-28T17:01:09.412Z,75.87
2019-01-28T17:03:38.746Z,65.17
2019-01-28T17:06:08.176Z,34.53
2019-01-28T17:08:37.501Z,31.97
2019-01-28T17:11:06.837Z,37.13
2019-01-28T17:13:36.167Z,22.73
2019-01-28T17:16:05.009Z,25.07
2019-01-28T17:18:33.461Z,26.20
2019-01-28T17:21:01.904Z,29.77
2019-01-28T17:23:31.348Z,25.77
2019-01-28T17:26:00.681Z,18.53
2019-01-28T17:28:30.015Z,13.57
2019-01-28T17:30:59.348Z,17.20
2019-01-28T17:33:28.669Z,13.93
2019-01-28T17:35:58.014Z,17.97
2019-01-28T17:38:27.344Z,19.53
2019-01-28T17:40:56.702Z,16.23
2019-01-28T17:43:26.046Z,18.00
2019-01-28T17:45:54.779Z,15.43
2019-01-28T17:48:24.102Z,20.57
2019-01-28T17:50:53.540Z,15.53
2019-01-28T17:53:22.861Z,19.20
2019-01-28T17:55:52.211Z,15.60
2019-01-28T17:58:21.544Z,14.93
2019-01-28T18:00:53.642Z,16.50
2019-01-28T18:03:23.071Z,15.00
2019-01-28T18:05:52.403Z,14.93
2019-01-28T18:08:21.582Z,15.17
2019-01-28T18:10:50.317Z,15.80
2019-01-28T18:13:19.662Z,14.47
2019-01-28T18:15:48.516Z,15.90
2019-01-28T18:18:16.954Z,13.07
2019-01-28T18:20:51.648Z,13.40
2019-01-28T18:23:54.721Z,13.13
2019-01-28T18:26:24.056Z,10.60
2019-01-28T18:28:53.397Z,10.63
2019-01-28T18:31:22.851Z,10.60
2019-01-28T18:33:52.180Z,12.23
2019-01-28T18:36:20.622Z,12.90
2019-01-28T18:38:49.979Z,11.53
2019-01-28T18:41:18.490Z,13.40
2019-01-28T18:43:47.828Z,14.57
2019-01-28T18:46:17.151Z,16.67
2019-01-28T18:48:46.671Z,15.63
2019-01-28T18:51:16.146Z,14.63
2019-01-28T18:53:45.430Z,14.17
2019-01-28T18:56:14.775Z,15.63
2019-01-28T18:58:44.115Z,14.17
2019-01-28T19:01:13.435Z,14.10
2019-01-28T19:03:42.787Z,14.03
2019-01-28T19:06:31.580Z,13.23
2019-01-28T19:09:19.671Z,13.90
2019-01-28T19:12:08.918Z,13.97
2019-01-28T19:14:45.166Z,14.63
2019-01-28T19:17:33.948Z,12.77
2019-01-28T19:23:05.242Z,12.40
2019-01-28T19:25:34.586Z,13.43
2019-01-28T19:28:04.123Z,13.80
2019-01-28T19:30:32.765Z,14.97
2019-01-28T19:33:02.205Z,14.07
2019-01-28T19:35:31.583Z,15.23
2019-01-28T19:38:00.907Z,13.30
2019-01-28T19:40:30.255Z,12.87
2019-01-28T19:42:59.577Z,12.70
2019-01-28T19:45:40.248Z,12.33
2019-01-28T19:48:08.870Z,13.13
2019-01-28T19:50:38.300Z,11.70
2019-01-28T19:53:07.628Z,12.53
2019-01-28T19:55:36.962Z,12.43
2019-01-28T19:58:05.433Z,12.07
2019-01-28T20:00:34.773Z,12.30
2019-01-28T20:03:06.607Z,12.57
2019-01-28T20:05:35.351Z,12.43
2019-01-28T20:08:25.160Z,12.63
2019-01-28T20:10:54.572Z,12.23
2019-01-28T20:13:23.958Z,12.87
2019-01-28T20:15:53.333Z,12.07
2019-01-28T20:18:22.402Z,12.23
2019-01-28T20:20:51.944Z,10.90
2019-01-28T20:23:21.297Z,12.47
2019-01-28T20:25:50.456Z,12.03
2019-01-28T20:28:19.833Z,11.73
2019-01-28T20:30:48.386Z,12.37
2019-01-28T20:33:16.936Z,12.90
2019-01-28T20:35:46.280Z,12.50
2019-01-28T20:38:16.104Z,13.00
2019-01-28T20:41:04.835Z,13.70
2019-01-28T20:43:34.179Z,15.30
2019-01-28T20:46:15.068Z,15.20
2019-01-28T20:48:43.719Z,16.73
2019-01-28T20:51:13.126Z,18.23
2019-01-28T20:53:42.447Z,18.50
2019-01-28T20:56:11.797Z,18.77
2019-01-28T20:58:41.139Z,17.10
2019-01-28T21:01:09.773Z,17.10
2019-01-28T21:03:39.107Z,14.50
2019-01-28T21:06:08.636Z,14.50
2019-01-28T21:08:38.089Z,12.70
2019-01-28T21:11:07.555Z,13.00
2019-01-28T21:13:37.020Z,12.70
2019-01-28T21:16:06.433Z,11.37
2019-01-28T21:18:35.801Z,11.30
2019-01-28T21:21:05.228Z,11.37
2019-01-28T21:23:33.863Z,12.07
2019-01-28T21:26:02.300Z,12.13
2019-01-28T21:28:30.832Z,12.13
2019-01-28T21:31:00.217Z,11.73
2019-01-28T21:33:28.755Z,11.60
2019-01-28T21:36:14.942Z,12.07
2019-01-28T21:38:46.552Z,11.67
2019-01-28T21:41:15.874Z,11.60
2019-01-28T21:43:44.707Z,12.27
2019-01-28T21:46:13.533Z,11.60
2019-01-28T21:48:42.874Z,13.57
2019-01-28T21:51:12.308Z,11.57
2019-01-28T21:53:40.849Z,11.77
2019-01-28T21:56:09.279Z,11.30
2019-01-28T21:58:38.599Z,10.47
2019-01-28T22:01:29.099Z,11.00
2019-01-28T22:03:58.436Z,10.60
2019-01-28T22:06:27.762Z,10.47
2019-01-28T22:08:57.113Z,10.27
2019-01-28T22:11:28.090Z,8.73
2019-01-28T22:13:56.881Z,9.30
2019-01-28T22:16:26.229Z,9.40
2019-01-28T22:18:54.765Z,8.53
2019-01-28T22:21:23.214Z,8.47
2019-01-28T22:23:52.538Z,8.87
2019-01-28T22:26:21.867Z,9.20
2019-01-28T22:28:50.395Z,9.77
2019-01-28T22:31:19.869Z,8.83
2019-01-28T22:33:49.204Z,9.13
2019-01-28T22:36:18.546Z,9.30
2019-01-28T22:38:47.855Z,9.73
2019-01-28T22:41:16.716Z,9.67
2019-01-28T22:43:45.361Z,10.53
2019-01-28T22:46:14.002Z,10.37
2019-01-28T22:48:43.297Z,9.50
2019-01-28T22:51:12.627Z,11.03
2019-01-28T22:53:42.052Z,10.13
2019-01-28T22:56:11.388Z,10.47
2019-01-28T22:58:39.913Z,11.30
2019-01-28T23:04:13.039Z,9.57
2019-01-28T23:06:42.375Z,8.67
2019-01-28T23:09:11.726Z,9.37
2019-01-28T23:14:36.248Z,8.50
2019-01-28T23:17:05.594Z,8.80
2019-01-28T23:19:34.915Z,8.13
2019-01-28T23:22:04.459Z,8.37
2019-01-28T23:24:33.776Z,8.60
2019-01-28T23:27:14.846Z,8.07
2019-01-28T23:29:43.390Z,8.60
2019-01-28T23:32:24.292Z,8.43
2019-01-28T23:34:53.036Z,9.07
2019-01-28T23:37:22.388Z,8.23
2019-01-28T23:39:51.720Z,8.17
2019-01-28T23:42:20.158Z,8.03
2019-01-28T23:44:48.687Z,8.27
2019-01-28T23:47:17.246Z,8.10
2019-01-28T23:49:46.606Z,8.63
2019-01-28T23:52:24.507Z,8.03
2019-01-28T23:54:46.465Z,8.30
2019-01-28T23:57:15.807Z,8.50
2019-01-28T23:59:44.345Z,8.63
